Benedict, Kansas
Current Conditions -  °F | °C
As of 5:52 AM on Sunday 21 Dec 2014 (Local Time) from KCNU Reporting Station
Overcast Overcast  
Wind Chill: 33°   Ceiling: 1800
Heat Index: 40°   Visibility: 10mi
Dew Point: 38°   Wind: 10mph
Humidity: 93%   Direction: 210°SSW
Pressure: 30.05"   Gusts: NA
Location:  37.63°N, 95.75°W
Report Text: KCNU 211152Z AUTO 21009KT 10SM FEW008 BKN018 OVC024 04/03 A3005 RMK AO2 SLP181 T00440033 10044 20028 58017
Loading
Personal Weather Stations






























Interactive Weather Map New forecast layout! Learn more

10-Day Weather Forecast

Advertisements
Track Severe Weather on mobile